Time;durP1;ratioP1;P1;durP2;ratioP2;P2;SDS_P1;SDS_P2;PMS_P1;PMS_P2;Temp;Humidity;BMP_temperature;BMP_pressure;BME280_temperature;BME280_humidity;BME280_pressure;Samples;Min_cycle;Max_cycle;Signal;HPM_P1;HPM_P2
2024/03/02 00:01:51;;;;;;;1.50;1.13;;;9.10;98.20;;;;;;4860832;29;20500;-92
2024/03/02 00:04:18;;;;;;;1.50;1.20;;;9.10;98.20;;;;;;4864491;29;20470;-92
2024/03/02 00:06:44;;;;;;;1.53;1.20;;;9.20;98.20;;;;;;4859653;29;21015;-92
2024/03/02 00:09:12;;;;;;;1.60;1.30;;;9.20;98.20;;;;;;4871466;29;20467;-92
2024/03/02 00:11:40;;;;;;;1.50;1.10;;;9.20;98.20;;;;;;4861509;29;20549;-92
2024/03/02 00:14:07;;;;;;;1.50;1.20;;;9.30;98.20;;;;;;4872334;29;20466;-92
2024/03/02 00:16:37;;;;;;;1.50;1.17;;;9.30;98.20;;;;;;4853513;29;20484;-92
2024/03/02 00:19:05;;;;;;;1.50;1.10;;;9.30;98.20;;;;;;4874185;29;20467;-89
2024/03/02 00:21:31;;;;;;;1.50;1.10;;;9.30;98.20;;;;;;4854278;29;20486;-90
2024/03/02 00:23:59;;;;;;;1.50;1.13;;;9.30;98.20;;;;;;4858648;29;21193;-91
2024/03/02 00:26:25;;;;;;;1.53;1.10;;;9.30;98.20;;;;;;4851098;29;20483;-90
2024/03/02 00:28:56;;;;;;;1.50;1.20;;;9.40;98.20;;;;;;4868079;29;20996;-90
2024/03/02 00:31:25;;;;;;;1.57;1.20;;;9.40;98.20;;;;;;4853743;29;20490;-90
2024/03/02 00:33:54;;;;;;;1.53;1.20;;;9.40;98.20;;;;;;4873001;29;20878;-90
2024/03/02 00:36:25;;;;;;;1.50;1.10;;;9.40;98.20;;;;;;4858444;29;20521;-92
2024/03/02 00:38:54;;;;;;;1.50;1.20;;;9.40;98.20;;;;;;4883602;29;20471;-92
2024/03/02 00:41:23;;;;;;;1.53;1.10;;;9.40;98.20;;;;;;4860664;29;20474;-92
2024/03/02 00:44:01;;;;;;;1.50;1.20;;;9.40;98.20;;;;;;4883261;29;20508;-93
2024/03/02 00:46:30;;;;;;;1.57;1.20;;;9.50;98.20;;;;;;4866722;29;21001;-93
2024/03/02 00:49:00;;;;;;;1.50;1.10;;;9.50;98.20;;;;;;4884059;29;20495;-92
2024/03/02 00:51:30;;;;;;;1.53;1.17;;;9.40;98.20;;;;;;4865414;29;20478;-91
2024/03/02 00:53:58;;;;;;;1.50;1.10;;;9.50;98.20;;;;;;4882074;29;20471;-91
2024/03/02 00:56:26;;;;;;;1.57;1.20;;;9.50;98.20;;;;;;4860225;29;20542;-93
2024/03/02 00:58:55;;;;;;;1.50;1.10;;;9.50;98.20;;;;;;4882203;29;20477;-90
2024/03/02 01:01:22;;;;;;;1.50;1.20;;;9.50;98.20;;;;;;4859011;29;20991;-93
2024/03/02 01:03:49;;;;;;;1.50;1.10;;;9.50;98.20;;;;;;4874934;29;20467;-92
2024/03/02 01:06:18;;;;;;;1.57;1.20;;;9.50;98.20;;;;;;4859453;29;20474;-92
2024/03/02 01:08:46;;;;;;;1.50;1.10;;;9.50;98.20;;;;;;4881486;29;21181;-92
2024/03/02 01:11:13;;;;;;;1.50;1.10;;;9.50;98.20;;;;;;4852066;29;20842;-92
2024/03/02 01:13:40;;;;;;;1.53;1.13;;;9.50;98.20;;;;;;4875106;29;20467;-93
2024/03/02 01:16:07;;;;;;;1.50;1.10;;;9.50;98.20;;;;;;4858540;29;20508;-90
2024/03/02 01:18:33;;;;;;;1.50;1.10;;;9.50;98.20;;;;;;4879103;29;20933;-92
2024/03/02 01:21:00;;;;;;;1.50;1.20;;;9.50;98.20;;;;;;4858351;29;20559;-92
2024/03/02 01:23:28;;;;;;;1.57;1.20;;;9.40;98.20;;;;;;4875676;29;20547;-93
2024/03/02 01:25:55;;;;;;;1.50;1.10;;;9.40;98.20;;;;;;4856151;29;20479;-90
2024/03/02 01:28:22;;;;;;;1.60;1.37;;;9.40;98.20;;;;;;4881719;29;20555;-91
2024/03/02 01:30:49;;;;;;;1.50;1.10;;;9.40;98.20;;;;;;4853120;29;20554;-93
2024/03/02 01:33:16;;;;;;;1.53;1.10;;;9.40;98.20;;;;;;4892199;29;20471;-91
2024/03/02 01:35:43;;;;;;;1.60;1.30;;;9.40;98.20;;;;;;4863465;29;20460;-92
2024/03/02 01:38:10;;;;;;;1.50;1.20;;;9.40;98.20;;;;;;4884725;29;20483;-91
2024/03/02 01:40:38;;;;;;;1.50;1.10;;;9.40;98.20;;;;;;4863248;29;20455;-93
2024/03/02 01:43:06;;;;;;;1.50;1.20;;;9.40;98.20;;;;;;4871497;29;20494;-92
2024/03/02 01:45:33;;;;;;;1.50;1.10;;;9.40;98.20;;;;;;4866189;29;20470;-93
2024/03/02 01:47:59;;;;;;;1.50;1.10;;;9.50;98.20;;;;;;4883890;29;20617;-92
2024/03/02 01:50:30;;;;;;;1.53;1.20;;;9.50;98.20;;;;;;4866230;29;20555;-92
2024/03/02 01:52:57;;;;;;;1.50;1.10;;;9.50;98.20;;;;;;4881934;29;20496;-92
2024/03/02 01:55:25;;;;;;;1.50;1.20;;;9.50;98.20;;;;;;4864588;29;20467;-90
2024/03/02 01:57:54;;;;;;;1.50;1.13;;;9.50;98.20;;;;;;4871549;29;20498;-92
2024/03/02 02:00:21;;;;;;;1.57;1.20;;;9.50;98.20;;;;;;4862436;29;20466;-91
2024/03/02 02:02:49;;;;;;;1.50;1.10;;;9.50;98.20;;;;;;4865473;29;20557;-91
2024/03/02 02:05:16;;;;;;;1.50;1.20;;;9.50;98.20;;;;;;4859265;29;20531;-92
2024/03/02 02:07:44;;;;;;;1.50;1.20;;;9.50;98.20;;;;;;4868929;29;20498;-91
2024/03/02 02:10:11;;;;;;;1.50;1.10;;;9.50;98.20;;;;;;4861851;29;20499;-93
2024/03/02 02:12:38;;;;;;;1.57;1.23;;;9.50;98.20;;;;;;4865947;29;20507;-91
2024/03/02 02:15:26;;;;;;;1.50;1.20;;;9.50;98.20;;;;;;4861257;29;20550;-92
2024/03/02 02:17:53;;;;;;;1.53;1.20;;;9.40;98.20;;;;;;4867727;29;20504;-92
2024/03/02 02:20:20;;;;;;;1.50;1.20;;;9.40;98.20;;;;;;4860960;29;20538;-92
2024/03/02 02:22:58;;;;;;;1.50;1.10;;;9.40;98.20;;;;;;4881677;29;21039;-91
2024/03/02 02:25:25;;;;;;;1.50;1.10;;;9.40;98.20;;;;;;4854430;29;20501;-91
2024/03/02 02:27:52;;;;;;;1.50;1.10;;;9.40;98.20;;;;;;4883453;29;20490;-92
2024/03/02 02:30:23;;;;;;;1.50;1.13;;;9.40;98.20;;;;;;4864302;29;20505;-91
2024/03/02 02:32:50;;;;;;;1.50;1.10;;;9.50;98.20;;;;;;4884131;29;20477;-91
2024/03/02 02:35:17;;;;;;;1.53;1.10;;;9.40;98.20;;;;;;4863266;29;20455;-92
2024/03/02 02:37:44;;;;;;;2.53;2.33;;;9.40;98.20;;;;;;4875396;29;20516;-93
2024/03/02 02:40:13;;;;;;;1.57;1.10;;;9.40;98.20;;;;;;4856495;29;20495;-92
2024/03/02 02:42:40;;;;;;;1.50;1.13;;;9.40;98.20;;;;;;4860755;29;21193;-92
2024/03/02 02:45:08;;;;;;;1.50;1.10;;;9.40;98.20;;;;;;4861406;29;20481;-92
2024/03/02 02:47:35;;;;;;;1.57;1.20;;;9.40;98.20;;;;;;4875699;29;20501;-92
2024/03/02 02:50:04;;;;;;;1.53;1.10;;;9.40;98.20;;;;;;4861669;29;20524;-92
2024/03/02 02:52:35;;;;;;;1.57;1.20;;;9.40;98.20;;;;;;4879843;29;20489;-91
2024/03/02 02:55:02;;;;;;;1.53;1.10;;;9.40;98.20;;;;;;4864776;29;20475;-91
2024/03/02 02:57:34;;;;;;;1.57;1.20;;;9.40;98.20;;;;;;4873452;29;20904;-90
2024/03/02 03:00:02;;;;;;;1.53;1.13;;;9.40;98.20;;;;;;4861461;29;20479;-92
2024/03/02 03:02:30;;;;;;;1.50;1.10;;;9.40;98.20;;;;;;4876966;29;20481;-92
2024/03/02 03:04:57;;;;;;;1.53;1.10;;;9.40;98.20;;;;;;4867554;29;20475;-91
2024/03/02 03:07:23;;;;;;;1.50;1.10;;;9.40;98.20;;;;;;4873129;29;20532;-92
2024/03/02 03:09:49;;;;;;;1.53;1.10;;;9.40;98.20;;;;;;4858491;29;20471;-90
2024/03/02 03:12:16;;;;;;;1.50;1.17;;;9.40;98.20;;;;;;4872348;29;20233;-91
2024/03/02 03:14:44;;;;;;;1.53;1.10;;;9.40;98.20;;;;;;4866106;29;20478;-90
2024/03/02 03:17:11;;;;;;;1.50;1.10;;;9.40;98.20;;;;;;4850040;29;21424;-92
2024/03/02 03:19:39;;;;;;;1.53;1.20;;;9.30;98.20;;;;;;4862308;29;20855;-91
2024/03/02 03:22:06;;;;;;;1.60;1.20;;;9.40;98.20;;;;;;4870077;29;20513;-91
2024/03/02 03:24:33;;;;;;;1.50;1.20;;;9.30;98.20;;;;;;4865815;29;20482;-91
2024/03/02 03:26:59;;;;;;;1.50;1.20;;;9.30;98.20;;;;;;4866409;29;20500;-91
2024/03/02 03:29:26;;;;;;;1.50;1.17;;;9.30;98.20;;;;;;4870810;29;20871;-92
2024/03/02 03:31:54;;;;;;;1.50;1.20;;;9.30;98.20;;;;;;4868828;29;20970;-93
2024/03/02 03:34:21;;;;;;;1.50;1.20;;;9.30;98.20;;;;;;4872492;29;20986;-91
2024/03/02 03:36:48;;;;;;;1.50;1.20;;;9.30;98.20;;;;;;4865578;29;20501;-91
2024/03/02 03:39:15;;;;;;;1.57;1.20;;;9.30;98.20;;;;;;4875503;29;20463;-92
2024/03/02 03:41:41;;;;;;;1.50;1.13;;;9.30;98.20;;;;;;4856786;29;20510;-92
2024/03/02 03:44:08;;;;;;;1.53;1.10;;;9.30;98.20;;;;;;4867837;29;20467;-91
2024/03/02 03:46:35;;;;;;;1.50;1.20;;;9.30;98.20;;;;;;4856412;29;20587;-92
2024/03/02 03:49:03;;;;;;;1.50;1.10;;;9.30;98.20;;;;;;4862983;29;20968;-92
2024/03/02 03:51:31;;;;;;;1.57;1.10;;;9.30;98.20;;;;;;4861367;29;20561;-93
2024/03/02 03:53:58;;;;;;;1.53;1.20;;;9.30;98.20;;;;;;4877580;29;20471;-92
2024/03/02 03:56:25;;;;;;;1.50;1.20;;;9.30;98.20;;;;;;4860000;29;20496;-91
2024/03/02 03:58:52;;;;;;;1.57;1.20;;;9.30;98.20;;;;;;4881447;29;20479;-93
2024/03/02 04:01:19;;;;;;;1.50;1.13;;;9.20;98.20;;;;;;4866814;29;20474;-92
2024/03/02 04:03:46;;;;;;;1.50;1.10;;;9.20;98.20;;;;;;4872346;29;20487;-92
2024/03/02 04:06:16;;;;;;;1.50;1.20;;;9.10;98.20;;;;;;4864731;29;20486;-91
2024/03/02 04:08:43;;;;;;;1.57;1.20;;;9.10;98.20;;;;;;4873875;29;20491;-90
2024/03/02 04:11:10;;;;;;;1.50;1.20;;;9.10;98.20;;;;;;4863818;29;20493;-92
2024/03/02 04:13:37;;;;;;;1.53;1.20;;;9.00;98.20;;;;;;4887954;29;20463;-89
2024/03/02 04:16:04;;;;;;;1.50;1.10;;;9.00;98.20;;;;;;4863151;29;20516;-93
2024/03/02 04:18:31;;;;;;;1.53;1.20;;;8.90;98.20;;;;;;4896945;29;20487;-91
2024/03/02 04:20:59;;;;;;;1.50;1.20;;;8.80;98.20;;;;;;4862474;29;20478;-92
2024/03/02 04:23:27;;;;;;;1.53;1.20;;;8.80;98.20;;;;;;4881316;29;20545;-92
2024/03/02 04:25:54;;;;;;;1.50;1.20;;;8.70;98.20;;;;;;4861535;29;20462;-91
2024/03/02 04:28:20;;;;;;;1.53;1.20;;;8.70;98.20;;;;;;4897536;29;20491;-92
2024/03/02 04:30:47;;;;;;;1.50;1.20;;;8.60;98.20;;;;;;4866756;29;20613;-92
2024/03/02 04:33:14;;;;;;;1.57;1.20;;;8.60;98.20;;;;;;4890648;29;20472;-92
2024/03/02 04:35:41;;;;;;;1.60;1.30;;;8.60;98.20;;;;;;4858932;29;20467;-90
2024/03/02 04:38:07;;;;;;;1.50;1.10;;;8.50;98.20;;;;;;4877286;29;20511;-92
2024/03/02 04:40:36;;;;;;;1.50;1.20;;;8.50;98.20;;;;;;4858249;29;20475;-90
2024/03/02 04:43:03;;;;;;;1.53;1.20;;;8.50;98.20;;;;;;4875466;29;20489;-92
2024/03/02 04:45:30;;;;;;;1.57;1.23;;;8.60;98.20;;;;;;4856236;29;20467;-92
2024/03/02 04:47:57;;;;;;;1.57;1.30;;;8.60;98.20;;;;;;4862261;29;20502;-92
2024/03/02 04:50:23;;;;;;;1.50;1.20;;;8.60;98.20;;;;;;4856892;29;20475;-91
2024/03/02 04:52:50;;;;;;;1.53;1.17;;;8.60;98.20;;;;;;4887004;29;20485;-93
2024/03/02 04:55:45;;;;;;;1.50;1.20;;;8.70;98.20;;;;;;4858027;29;20476;-92
2024/03/02 04:58:13;;;;;;;1.57;1.30;;;8.70;98.20;;;;;;4873234;29;20487;-90
2024/03/02 05:00:40;;;;;;;1.53;1.20;;;8.60;98.20;;;;;;4858110;29;20880;-91
2024/03/02 05:03:06;;;;;;;1.53;1.20;;;8.60;98.20;;;;;;4878277;29;21195;-91
2024/03/02 05:05:33;;;;;;;1.50;1.20;;;8.60;98.20;;;;;;4857848;29;20470;-93
2024/03/02 05:08:00;;;;;;;1.53;1.20;;;8.60;98.20;;;;;;4876033;29;20497;-91
2024/03/02 05:10:26;;;;;;;1.53;1.20;;;8.60;98.20;;;;;;4860239;29;20474;-91
2024/03/02 05:12:59;;;;;;;1.53;1.20;;;8.50;98.20;;;;;;4864129;29;20481;-92
2024/03/02 05:15:28;;;;;;;1.50;1.20;;;8.50;98.20;;;;;;4857610;29;20463;-92
2024/03/02 05:17:56;;;;;;;1.57;1.20;;;8.60;98.20;;;;;;4877447;29;20585;-92
2024/03/02 05:20:23;;;;;;;1.50;1.20;;;8.60;98.20;;;;;;4856867;29;20917;-92
2024/03/02 05:22:50;;;;;;;1.60;1.20;;;8.60;98.20;;;;;;4876277;29;21013;-91
2024/03/02 05:25:17;;;;;;;1.53;1.10;;;8.60;98.20;;;;;;4850033;29;20472;-91
2024/03/02 05:27:44;;;;;;;1.50;1.20;;;8.60;98.20;;;;;;4859576;29;20891;-90
2024/03/02 05:30:11;;;;;;;1.53;1.30;;;8.60;98.20;;;;;;4855608;29;20482;-92
2024/03/02 05:32:39;;;;;;;1.50;1.20;;;8.60;98.20;;;;;;4859682;29;20489;-90
2024/03/02 05:35:07;;;;;;;1.60;1.20;;;8.50;98.20;;;;;;4858541;29;20482;-90
2024/03/02 05:37:34;;;;;;;1.53;1.20;;;8.50;98.20;;;;;;4873308;29;21013;-91
2024/03/02 05:40:01;;;;;;;1.60;1.20;;;8.50;98.20;;;;;;4863044;29;20472;-92
2024/03/02 05:42:28;;;;;;;1.50;1.20;;;8.40;98.20;;;;;;4873932;29;20685;-91
2024/03/02 05:44:55;;;;;;;1.57;1.20;;;8.40;98.20;;;;;;4868164;29;20888;-91
2024/03/02 05:47:21;;;;;;;1.50;1.20;;;8.40;98.20;;;;;;4869884;29;20561;-93
2024/03/02 05:49:49;;;;;;;1.50;1.20;;;8.40;98.20;;;;;;4863179;29;21209;-91
2024/03/02 05:52:16;;;;;;;1.57;1.20;;;8.30;98.20;;;;;;4862013;29;20558;-92
2024/03/02 05:54:43;;;;;;;1.50;1.20;;;8.30;98.20;;;;;;4861472;29;20478;-91
2024/03/02 05:57:32;;;;;;;1.50;1.20;;;8.30;98.20;;;;;;4862332;29;20998;-91
2024/03/02 05:59:59;;;;;;;1.53;1.20;;;8.30;98.20;;;;;;4862179;29;20482;-90
2024/03/02 06:02:26;;;;;;;1.50;1.20;;;8.30;98.20;;;;;;4879107;29;20488;-91
2024/03/02 06:04:55;;;;;;;1.57;1.27;;;8.30;98.20;;;;;;4866688;29;20856;-92
2024/03/02 06:07:21;;;;;;;1.50;1.20;;;8.20;98.20;;;;;;4871558;29;20494;-90
2024/03/02 06:09:50;;;;;;;1.50;1.20;;;8.20;98.20;;;;;;4864142;29;20489;-91
2024/03/02 06:12:17;;;;;;;1.53;1.20;;;8.30;98.20;;;;;;4873454;29;20493;-90
2024/03/02 06:14:44;;;;;;;1.60;1.30;;;8.30;98.20;;;;;;4866781;29;20479;-91
2024/03/02 06:17:11;;;;;;;1.50;1.20;;;8.30;98.20;;;;;;4862278;29;20497;-91
2024/03/02 06:19:38;;;;;;;1.80;1.70;;;8.30;98.20;;;;;;4850887;29;20472;-89
2024/03/02 06:22:09;;;;;;;1.60;1.30;;;8.30;98.20;;;;;;4852384;29;20500;-89
2024/03/02 06:24:37;;;;;;;1.50;1.20;;;8.30;98.20;;;;;;4859481;29;20523;-88
2024/03/02 06:27:03;;;;;;;1.50;1.10;;;8.40;98.20;;;;;;4860889;29;20494;-89
2024/03/02 06:29:29;;;;;;;1.53;1.20;;;8.40;98.20;;;;;;4866786;29;20485;-91
2024/03/02 06:31:56;;;;;;;1.60;1.30;;;8.40;98.20;;;;;;4859789;29;20745;-89
2024/03/02 06:34:23;;;;;;;1.50;1.20;;;8.30;98.20;;;;;;4867345;29;20471;-89
2024/03/02 06:36:49;;;;;;;1.57;1.20;;;8.30;98.20;;;;;;4859495;29;20509;-90
2024/03/02 06:39:18;;;;;;;1.53;1.20;;;8.30;98.20;;;;;;4868657;29;20467;-89
2024/03/02 06:41:47;;;;;;;1.50;1.20;;;8.30;98.20;;;;;;4858766;29;20497;-89
2024/03/02 06:44:13;;;;;;;1.50;1.20;;;8.30;98.20;;;;;;4867950;29;20957;-90
2024/03/02 06:46:40;;;;;;;1.50;1.20;;;8.30;98.20;;;;;;4865240;29;20493;-89
2024/03/02 06:49:09;;;;;;;1.57;1.20;;;8.30;98.20;;;;;;4884572;29;20477;-92
2024/03/02 06:51:36;;;;;;;1.50;1.20;;;8.30;98.20;;;;;;4872738;29;20544;-93
2024/03/02 06:54:03;;;;;;;1.50;1.20;;;8.30;98.20;;;;;;4888100;29;20475;-93
2024/03/02 06:56:32;;;;;;;1.50;1.20;;;8.30;98.20;;;;;;4867911;29;20527;-91
2024/03/02 06:58:59;;;;;;;1.57;1.20;;;8.30;98.20;;;;;;4880041;29;20467;-93
2024/03/02 07:01:27;;;;;;;1.53;1.20;;;8.40;98.20;;;;;;4855603;29;20494;-91
2024/03/02 07:03:55;;;;;;;1.53;1.20;;;8.40;98.20;;;;;;4875257;29;20504;-92
2024/03/02 07:06:21;;;;;;;1.53;1.20;;;8.50;98.20;;;;;;4866247;29;21021;-92
2024/03/02 07:08:48;;;;;;;1.53;1.20;;;8.50;98.20;;;;;;4877331;29;20535;-90
2024/03/02 07:11:15;;;;;;;1.57;1.20;;;8.60;98.20;;;;;;4865922;29;20483;-92
2024/03/02 07:13:43;;;;;;;1.50;1.20;;;8.70;98.20;;;;;;4891627;29;20770;-89
2024/03/02 07:16:27;;;;;;;1.50;1.20;;;8.70;98.20;;;;;;4857104;29;20561;-90
2024/03/02 07:18:56;;;;;;;1.53;1.20;;;8.80;98.20;;;;;;4885236;29;21011;-92
2024/03/02 07:21:23;;;;;;;1.50;1.10;;;8.80;98.20;;;;;;4863458;29;21238;-91
2024/03/02 07:27:29;;;;;;;1.57;1.20;;;9.10;98.20;;;;;;4912739;23;20558;-85
2024/03/02 07:30:03;;;;;;;1.50;1.10;;;9.30;98.20;;;;;;4880256;29;20470;-83
2024/03/02 07:32:35;;;;;;;1.53;1.20;;;9.40;98.20;;;;;;4867352;29;20620;-83
2024/03/02 07:35:03;;;;;;;1.57;1.20;;;9.50;98.20;;;;;;4862510;29;21001;-82
2024/03/02 07:37:33;;;;;;;1.90;1.70;;;9.50;98.20;;;;;;4858321;29;20514;-82
2024/03/02 07:42:46;;;;;;;1.50;1.10;;;9.60;98.20;;;;;;4839556;29;20490;-83
2024/03/02 07:45:15;;;;;;;1.57;1.10;;;9.60;98.20;;;;;;4861722;29;20479;-84
2024/03/02 07:47:43;;;;;;;1.50;1.10;;;9.60;98.20;;;;;;4859890;29;20500;-84
2024/03/02 07:50:17;;;;;;;1.53;1.10;;;9.70;98.20;;;;;;4859843;29;20491;-84
2024/03/02 07:52:47;;;;;;;1.60;1.20;;;9.90;98.20;;;;;;4856576;29;20483;-84
2024/03/02 07:55:15;;;;;;;1.53;1.10;;;10.00;98.20;;;;;;4867935;29;21069;-82
2024/03/02 07:57:52;;;;;;;1.50;1.10;;;10.10;98.20;;;;;;4860504;29;20500;-85
2024/03/02 08:00:39;;;;;;;1.50;1.10;;;10.30;98.20;;;;;;4855931;29;20482;-84
2024/03/02 08:03:06;;;;;;;1.50;1.10;;;10.40;98.20;;;;;;4893820;23;20505;-79
2024/03/02 08:05:33;;;;;;;1.53;1.10;;;10.40;98.20;;;;;;4875767;29;20503;-77
2024/03/02 08:08:00;;;;;;;1.50;1.10;;;10.50;98.20;;;;;;4860012;29;20495;-79
2024/03/02 08:10:27;;;;;;;1.60;1.20;;;10.70;98.20;;;;;;4874969;29;20555;-79
2024/03/02 08:12:54;;;;;;;1.60;1.20;;;10.80;98.20;;;;;;4860929;29;20475;-79
2024/03/02 08:15:21;;;;;;;1.60;1.10;;;10.90;98.20;;;;;;4884610;29;20558;-78
2024/03/02 08:17:49;;;;;;;1.60;1.20;;;11.00;98.20;;;;;;4862287;29;20997;-79
2024/03/02 08:20:16;;;;;;;1.60;1.10;;;11.20;98.20;;;;;;4852111;29;20480;-78
2024/03/02 08:22:44;;;;;;;1.57;1.10;;;11.40;98.20;;;;;;4860414;29;20593;-78
2024/03/02 08:25:16;;;;;;;1.57;1.20;;;11.60;98.20;;;;;;4856030;29;20534;-78
2024/03/02 08:27:43;;;;;;;1.53;1.00;;;11.90;98.20;;;;;;4868869;29;20518;-77
2024/03/02 08:30:11;;;;;;;1.50;1.00;;;11.90;98.20;;;;;;4859144;29;20535;-78
2024/03/02 08:35:24;;;;;;;1.60;1.10;;;12.10;98.20;;;;;;4885012;29;20539;-79
2024/03/02 08:37:51;;;;;;;1.57;1.00;;;12.00;98.20;;;;;;4865504;29;20496;-80
2024/03/02 08:40:18;;;;;;;1.50;1.00;;;12.00;98.20;;;;;;4890279;23;20574;-80
2024/03/02 08:42:45;;;;;;;1.60;1.20;;;12.00;98.20;;;;;;4876922;29;20506;-81
2024/03/02 08:45:12;;;;;;;1.53;1.10;;;11.90;98.20;;;;;;4873257;29;20483;-79
2024/03/02 08:47:39;;;;;;;1.50;1.00;;;11.80;98.20;;;;;;4863488;29;20516;-78
2024/03/02 08:50:08;;;;;;;1.57;1.10;;;11.80;98.20;;;;;;4869901;29;20544;-79
2024/03/02 08:52:36;;;;;;;1.50;1.00;;;11.80;98.20;;;;;;4863628;29;20533;-79
2024/03/02 08:55:03;;;;;;;1.50;1.00;;;11.90;98.20;;;;;;4867758;29;20496;-80
2024/03/02 08:57:30;;;;;;;1.50;1.00;;;12.00;98.20;;;;;;4879613;29;20558;-80
2024/03/02 08:59:57;;;;;;;1.60;1.10;;;12.20;98.20;;;;;;4871885;29;20559;-80
2024/03/02 09:02:24;;;;;;;1.50;1.00;;;12.30;98.20;;;;;;4873029;29;20551;-78
2024/03/02 09:04:51;;;;;;;1.50;1.00;;;12.50;98.20;;;;;;4876904;29;20477;-79
2024/03/02 09:07:19;;;;;;;1.50;1.00;;;12.60;98.20;;;;;;4863930;29;20518;-79
2024/03/02 09:09:47;;;;;;;1.57;1.10;;;12.60;98.20;;;;;;4872716;29;20892;-77
2024/03/02 09:12:14;;;;;;;1.57;1.00;;;12.70;98.20;;;;;;4857314;29;20485;-79
2024/03/02 09:14:41;;;;;;;1.50;1.00;;;12.80;98.20;;;;;;4865660;29;20481;-78
2024/03/02 09:17:10;;;;;;;1.50;1.00;;;12.90;98.20;;;;;;4864122;29;20490;-78
2024/03/02 09:19:37;;;;;;;1.60;1.03;;;13.00;98.20;;;;;;4871818;29;20586;-79
2024/03/02 09:22:05;;;;;;;1.50;1.00;;;13.00;97.90;;;;;;4865474;29;20513;-79
2024/03/02 09:24:32;;;;;;;1.57;1.00;;;12.90;98.20;;;;;;4867241;29;20554;-78
2024/03/02 09:27:01;;;;;;;1.50;1.00;;;12.90;98.20;;;;;;4872448;29;20484;-78
2024/03/02 09:29:27;;;;;;;1.53;1.00;;;13.00;98.20;;;;;;4885136;29;20494;-79
2024/03/02 09:31:54;;;;;;;1.50;1.00;;;13.10;98.00;;;;;;4868238;29;20561;-82
2024/03/02 09:34:22;;;;;;;1.57;1.00;;;13.20;97.80;;;;;;4881283;29;20470;-77
2024/03/02 09:36:51;;;;;;;1.50;1.00;;;13.30;97.60;;;;;;4864655;29;20570;-78
2024/03/02 09:39:18;;;;;;;1.50;1.00;;;13.20;97.70;;;;;;4871773;29;20519;-79
2024/03/02 09:41:45;;;;;;;1.50;0.90;;;13.30;97.70;;;;;;4871429;29;20489;-79
2024/03/02 09:44:14;;;;;;;1.60;1.00;;;13.40;97.60;;;;;;4885941;29;20494;-80
2024/03/02 09:46:43;;;;;;;1.50;1.00;;;13.50;97.40;;;;;;4867027;29;20562;-80
2024/03/02 09:49:10;;;;;;;1.50;0.97;;;13.50;97.50;;;;;;4884309;29;20494;-78
2024/03/02 09:51:38;;;;;;;1.50;1.00;;;13.60;96.40;;;;;;4869711;29;20509;-79
2024/03/02 09:54:05;;;;;;;1.60;1.00;;;13.60;97.10;;;;;;4871910;29;20503;-78
2024/03/02 09:56:32;;;;;;;1.57;1.00;;;13.70;96.90;;;;;;4870004;29;20481;-78
2024/03/02 09:59:00;;;;;;;1.50;0.90;;;13.80;96.30;;;;;;4881332;29;20936;-78
2024/03/02 10:01:28;;;;;;;1.50;0.97;;;13.70;95.60;;;;;;4871134;29;20514;-79
2024/03/02 10:03:56;;;;;;;1.50;1.00;;;13.80;96.20;;;;;;4884307;29;20556;-78
2024/03/02 10:06:25;;;;;;;1.50;0.93;;;13.90;96.40;;;;;;4871918;29;20498;-79
2024/03/02 10:08:53;;;;;;;1.50;1.00;;;14.00;96.10;;;;;;4883390;29;20501;-80
2024/03/02 10:11:39;;;;;;;1.50;0.97;;;14.00;95.90;;;;;;4870301;29;20524;-79
2024/03/02 10:14:08;;;;;;;1.57;1.00;;;14.10;95.90;;;;;;4886192;29;20503;-79
2024/03/02 10:16:37;;;;;;;1.50;0.90;;;14.20;95.40;;;;;;4865517;29;20482;-78
2024/03/02 10:19:18;;;;;;;1.60;1.00;;;14.40;95.90;;;;;;4885275;29;21013;-79
2024/03/02 10:21:45;;;;;;;1.50;0.90;;;14.60;94.90;;;;;;4866989;29;20493;-79
2024/03/02 10:24:12;;;;;;;1.53;1.00;;;14.70;94.70;;;;;;4886132;29;20465;-79
2024/03/02 10:26:39;;;;;;;1.50;1.00;;;14.70;93.60;;;;;;4874916;29;20528;-78
2024/03/02 10:29:06;;;;;;;1.50;1.00;;;14.80;94.20;;;;;;4877659;29;20486;-81
2024/03/02 10:31:33;;;;;;;1.50;1.00;;;14.80;94.20;;;;;;4869026;29;20550;-80
2024/03/02 10:34:02;;;;;;;1.53;1.00;;;15.00;94.30;;;;;;4876068;29;20500;-79
2024/03/02 10:36:29;;;;;;;1.50;1.00;;;15.20;91.80;;;;;;4863421;29;20478;-79
2024/03/02 10:38:59;;;;;;;1.57;1.00;;;15.10;92.10;;;;;;4883715;29;20497;-80
2024/03/02 10:41:28;;;;;;;1.50;0.93;;;15.00;93.20;;;;;;4870178;29;20479;-79
2024/03/02 10:43:59;;;;;;;1.53;1.00;;;15.10;93.00;;;;;;4889094;29;20466;-77
2024/03/02 10:46:30;;;;;;;1.50;1.00;;;15.30;92.30;;;;;;4859094;29;20486;-78
2024/03/02 10:48:58;;;;;;;1.50;0.90;;;15.40;92.00;;;;;;4882914;29;21068;-78
2024/03/02 10:51:27;;;;;;;1.50;0.90;;;15.40;91.10;;;;;;4868550;29;20478;-79
2024/03/02 10:53:57;;;;;;;1.50;0.90;;;15.50;91.30;;;;;;4875268;29;20590;-78
2024/03/02 10:56:29;;;;;;;1.50;1.00;;;15.40;90.60;;;;;;4861073;29;20483;-79
2024/03/02 10:59:03;;;;;;;1.50;1.00;;;15.30;91.90;;;;;;4885174;29;20577;-80
2024/03/02 11:01:32;;;;;;;1.57;1.00;;;15.30;91.60;;;;;;4873252;29;20598;-80
2024/03/02 11:04:00;;;;;;;1.50;0.90;;;15.40;91.60;;;;;;4888117;29;20473;-78
2024/03/02 11:06:31;;;;;;;1.57;1.00;;;15.50;91.30;;;;;;4877879;29;20529;-78
2024/03/02 11:09:03;;;;;;;1.60;1.00;;;15.50;90.40;;;;;;4879363;29;20490;-78
2024/03/02 11:11:34;;;;;;;1.50;1.00;;;15.50;90.20;;;;;;4867545;29;20538;-79
2024/03/02 11:14:08;;;;;;;1.53;1.00;;;15.60;90.90;;;;;;4888765;29;20495;-79
2024/03/02 11:16:37;;;;;;;1.50;0.90;;;15.80;89.90;;;;;;4852902;29;20523;-78
2024/03/02 11:19:06;;;;;;;1.50;0.90;;;15.80;89.60;;;;;;4869449;29;20546;-77
2024/03/02 11:21:36;;;;;;;1.53;1.00;;;15.90;90.00;;;;;;4861527;29;20610;-77
2024/03/02 11:24:32;;;;;;;1.53;0.90;;;16.00;88.70;;;;;;4875222;29;20509;-78
2024/03/02 11:27:00;;;;;;;1.50;1.00;;;15.90;88.30;;;;;;4858540;29;20916;-78
2024/03/02 11:29:45;;;;;;;1.50;1.00;;;15.90;88.90;;;;;;4864210;29;20483;-78
2024/03/02 11:32:17;;;;;;;1.60;1.20;;;15.90;88.70;;;;;;4858000;29;20525;-77
2024/03/02 11:34:47;;;;;;;1.50;0.97;;;15.90;88.80;;;;;;4863173;29;20498;-78
2024/03/02 11:37:17;;;;;;;1.50;0.97;;;15.90;88.40;;;;;;4860838;29;20490;-77
2024/03/02 11:39:46;;;;;;;1.57;1.03;;;15.90;88.90;;;;;;4865615;29;20506;-78
2024/03/02 11:42:15;;;;;;;1.53;1.00;;;15.70;88.60;;;;;;4858331;29;20517;-78
2024/03/02 11:44:44;;;;;;;1.50;1.00;;;15.60;88.60;;;;;;4858024;29;21160;-78
2024/03/02 11:47:15;;;;;;;1.50;1.00;;;15.60;88.60;;;;;;4860410;29;20783;-78
2024/03/02 11:49:45;;;;;;;1.50;1.10;;;15.60;89.00;;;;;;4860889;29;20494;-78
2024/03/02 11:52:13;;;;;;;1.60;1.30;;;15.60;90.60;;;;;;4856132;29;20559;-78
2024/03/02 11:54:46;;;;;;;1.50;1.00;;;15.90;90.20;;;;;;4861516;29;20962;-78
2024/03/02 11:57:14;;;;;;;1.50;1.00;;;16.00;88.50;;;;;;4856205;29;20631;-78
2024/03/02 11:59:42;;;;;;;1.50;0.97;;;16.20;88.00;;;;;;4858119;29;20610;-79
2024/03/02 12:02:15;;;;;;;1.53;1.00;;;16.20;87.20;;;;;;4859684;29;21138;-78
2024/03/02 12:04:43;;;;;;;1.50;0.90;;;16.10;87.20;;;;;;4858567;29;20475;-77
2024/03/02 12:07:10;;;;;;;1.50;1.00;;;16.10;87.50;;;;;;4856497;29;21084;-78
2024/03/02 12:09:38;;;;;;;1.50;1.00;;;16.20;87.30;;;;;;4865667;29;20788;-78
2024/03/02 12:12:08;;;;;;;1.50;1.10;;;16.20;87.10;;;;;;4856018;29;20959;-78
2024/03/02 12:14:36;;;;;;;1.50;0.90;;;16.00;87.50;;;;;;4858108;29;20509;-78
2024/03/02 12:17:07;;;;;;;1.53;1.00;;;15.90;88.70;;;;;;4856663;29;21033;-78
2024/03/02 12:19:34;;;;;;;1.50;0.90;;;15.80;88.70;;;;;;4859582;29;20618;-77
2024/03/02 12:22:02;;;;;;;1.50;0.90;;;15.80;89.90;;;;;;4852582;29;21144;-78
2024/03/02 12:24:31;;;;;;;1.57;1.10;;;15.70;89.70;;;;;;4857115;29;20474;-77
2024/03/02 12:26:59;;;;;;;1.57;1.10;;;15.60;90.00;;;;;;4846271;29;20592;-77
2024/03/02 12:29:30;;;;;;;1.50;0.97;;;15.50;90.20;;;;;;4858747;29;20483;-77
2024/03/02 12:31:57;;;;;;;1.50;1.00;;;15.40;90.60;;;;;;4846948;29;20559;-76
2024/03/02 12:34:25;;;;;;;1.50;0.90;;;15.40;90.60;;;;;;4856328;29;20495;-77
2024/03/02 12:36:53;;;;;;;1.50;1.00;;;15.20;90.70;;;;;;4850360;29;20491;-77
2024/03/02 12:39:22;;;;;;;1.50;1.00;;;15.20;90.80;;;;;;4856466;29;20499;-77
2024/03/02 12:41:51;;;;;;;1.50;0.93;;;15.20;91.00;;;;;;4850204;29;20689;-78
2024/03/02 12:44:19;;;;;;;1.50;1.00;;;15.20;91.10;;;;;;4862311;29;20470;-77
2024/03/02 12:46:48;;;;;;;1.50;0.90;;;15.30;92.00;;;;;;4850359;29;20941;-77
2024/03/02 12:49:17;;;;;;;1.53;1.00;;;15.30;91.60;;;;;;4859751;29;20494;-79
2024/03/02 12:51:46;;;;;;;1.50;1.00;;;15.20;91.60;;;;;;4851987;29;20505;-78
2024/03/02 12:54:15;;;;;;;1.50;0.90;;;15.10;92.10;;;;;;4862763;29;20494;-78
2024/03/02 12:56:45;;;;;;;1.50;0.97;;;15.00;91.60;;;;;;4845326;29;20925;-78
2024/03/02 12:59:21;;;;;;;1.50;1.00;;;14.90;92.30;;;;;;4862632;29;20537;-77
2024/03/02 13:01:53;;;;;;;1.50;1.00;;;14.80;92.10;;;;;;4852880;29;20498;-77
2024/03/02 13:04:24;;;;;;;1.50;0.90;;;14.70;92.10;;;;;;4867296;29;20478;-76
2024/03/02 13:06:51;;;;;;;1.57;1.10;;;14.70;92.20;;;;;;4848248;29;20526;-77
2024/03/02 13:09:18;;;;;;;1.50;1.00;;;14.70;92.10;;;;;;4859184;29;20591;-77